createdAt,value
2019-03-23T00:01:46.901Z,2.90
2019-03-23T00:04:18.856Z,2.91
2019-03-23T00:06:52.689Z,2.84
2019-03-23T00:09:25.698Z,2.75
2019-03-23T00:11:58.184Z,2.68
2019-03-23T00:14:29.793Z,2.68
2019-03-23T00:17:05.350Z,2.69
2019-03-23T00:19:37.550Z,2.62
2019-03-23T00:22:09.078Z,2.59
2019-03-23T00:24:40.543Z,2.56
2019-03-23T00:27:12.344Z,2.59
2019-03-23T00:29:45.118Z,2.59
2019-03-23T00:32:16.615Z,2.56
2019-03-23T00:34:48.580Z,2.57
2019-03-23T00:37:20.215Z,2.56
2019-03-23T00:40:12.738Z,2.56
2019-03-23T00:42:47.744Z,2.48
2019-03-23T00:45:19.288Z,2.44
2019-03-23T00:47:51.485Z,2.46
2019-03-23T00:50:22.934Z,2.42
2019-03-23T00:52:54.631Z,2.39
2019-03-23T00:55:26.380Z,2.34
2019-03-23T00:57:58.850Z,2.31
2019-03-23T01:00:30.372Z,2.28
2019-03-23T01:03:02.114Z,2.25
2019-03-23T01:05:34.230Z,2.18
2019-03-23T01:08:06.016Z,2.14
2019-03-23T01:10:47.628Z,2.16
2019-03-23T01:13:19.365Z,2.22
2019-03-23T01:15:51.964Z,2.18
2019-03-23T01:18:23.545Z,2.18
2019-03-23T01:20:55.374Z,2.11
2019-03-23T01:23:27.153Z,2.05
2019-03-23T01:25:58.607Z,2.00
2019-03-23T01:28:30.016Z,1.99
2019-03-23T01:31:01.903Z,1.97
2019-03-23T01:33:33.348Z,1.91
2019-03-23T01:36:04.799Z,1.88
2019-03-23T01:38:36.518Z,1.79
2019-03-23T01:41:08.010Z,1.78
2019-03-23T01:43:39.451Z,1.76
2019-03-23T01:46:10.648Z,1.70
2019-03-23T01:48:42.719Z,1.66
2019-03-23T01:51:13.843Z,1.67
2019-03-23T01:53:45.671Z,1.63
2019-03-23T01:56:17.418Z,1.63
2019-03-23T01:58:48.980Z,1.58
2019-03-23T02:01:20.081Z,1.59
2019-03-23T02:03:51.874Z,1.60
2019-03-23T02:06:24.423Z,1.62
2019-03-23T02:09:04.323Z,1.59
2019-03-23T02:11:36.155Z,1.52
2019-03-23T02:14:08.180Z,1.50
2019-03-23T02:16:39.607Z,1.51
2019-03-23T02:19:11.018Z,1.46
2019-03-23T02:21:42.811Z,1.59
2019-03-23T02:24:14.321Z,1.58
2019-03-23T02:26:45.784Z,1.53
2019-03-23T02:29:17.250Z,1.52
2019-03-23T02:31:49.204Z,1.44
2019-03-23T02:34:21.676Z,1.43
2019-03-23T02:36:53.534Z,1.37
2019-03-23T02:39:25.444Z,1.38
2019-03-23T02:41:56.851Z,1.40
2019-03-23T02:44:28.511Z,1.37
2019-03-23T02:47:00.679Z,1.41
2019-03-23T02:49:32.632Z,1.41
2019-03-23T02:52:04.079Z,1.43
2019-03-23T02:54:35.661Z,1.40
2019-03-23T02:57:08.076Z,1.44
2019-03-23T02:59:40.320Z,1.41
2019-03-23T03:02:12.751Z,1.37
2019-03-23T03:04:44.913Z,1.36
2019-03-23T03:07:17.552Z,1.38
2019-03-23T03:09:50.676Z,1.45
2019-03-23T03:12:22.652Z,1.45
2019-03-23T03:14:54.523Z,1.35
2019-03-23T03:17:28.433Z,1.30
2019-03-23T03:20:00.247Z,1.27
2019-03-23T03:22:31.618Z,1.28
2019-03-23T03:25:03.088Z,1.35
2019-03-23T03:27:34.829Z,1.30
2019-03-23T03:30:07.098Z,1.31
2019-03-23T03:32:39.229Z,1.24
2019-03-23T03:35:11.386Z,1.07
2019-03-23T03:37:55.830Z,0.92
2019-03-23T03:40:16.699Z,0.86
2019-03-23T03:42:48.657Z,1.00
2019-03-23T03:45:26.339Z,1.15
2019-03-23T03:47:58.133Z,1.09
2019-03-23T03:50:30.682Z,1.04
2019-03-23T03:53:02.541Z,1.00
2019-03-23T03:55:36.769Z,0.97
2019-03-23T03:58:07.878Z,0.89
2019-03-23T04:00:39.782Z,0.79
2019-03-23T04:03:11.191Z,0.67
2019-03-23T04:05:43.741Z,0.71
2019-03-23T04:08:15.557Z,0.81
2019-03-23T04:10:59.584Z,0.81
2019-03-23T04:13:31.457Z,0.82
2019-03-23T04:16:03.205Z,0.75
2019-03-23T04:18:34.971Z,0.64
2019-03-23T04:21:06.801Z,0.61
2019-03-23T04:23:39.390Z,0.60
2019-03-23T04:26:11.179Z,0.65
2019-03-23T04:28:42.974Z,0.86
2019-03-23T04:31:14.893Z,0.92
2019-03-23T04:33:47.068Z,0.85
2019-03-23T04:36:18.988Z,0.82
2019-03-23T04:38:50.465Z,0.85
2019-03-23T04:41:22.461Z,0.86
2019-03-23T04:43:54.387Z,0.90
2019-03-23T04:46:48.895Z,0.82
2019-03-23T04:49:20.582Z,0.73
2019-03-23T04:51:54.051Z,0.68
2019-03-23T04:54:25.205Z,0.66
2019-03-23T04:56:57.198Z,0.65
2019-03-23T04:59:28.982Z,0.66
2019-03-23T05:02:01.132Z,0.64
2019-03-23T05:04:33.434Z,0.60
2019-03-23T05:07:04.900Z,0.59
2019-03-23T05:09:36.745Z,0.59
2019-03-23T05:12:08.596Z,0.60
2019-03-23T05:14:40.354Z,0.59
2019-03-23T05:17:12.137Z,0.59
2019-03-23T05:19:43.984Z,0.56
2019-03-23T05:22:15.423Z,0.51
2019-03-23T05:24:47.538Z,0.50
2019-03-23T05:27:19.355Z,0.57
2019-03-23T05:29:51.519Z,0.62
2019-03-23T05:32:32.097Z,0.62
2019-03-23T05:35:03.566Z,0.60
2019-03-23T05:37:35.314Z,0.72
2019-03-23T05:40:07.153Z,0.80
2019-03-23T05:42:40.240Z,0.80
2019-03-23T05:45:11.906Z,0.86
2019-03-23T05:47:44.394Z,0.90
2019-03-23T05:50:16.348Z,0.90
2019-03-23T05:52:48.099Z,0.95
2019-03-23T05:55:19.962Z,1.00
2019-03-23T05:57:52.538Z,1.15
2019-03-23T06:00:30.054Z,1.18
2019-03-23T06:03:02.222Z,1.30
2019-03-23T06:05:34.774Z,1.40
2019-03-23T06:08:06.243Z,1.40
2019-03-23T06:10:37.989Z,1.50
2019-03-23T06:13:09.816Z,1.67
2019-03-23T06:15:42.122Z,1.74
2019-03-23T06:18:13.969Z,1.86
2019-03-23T06:20:45.724Z,2.04
2019-03-23T06:23:17.503Z,2.21
2019-03-23T06:25:48.933Z,2.33
2019-03-23T06:28:20.917Z,2.47
2019-03-23T06:31:04.836Z,2.59
2019-03-23T06:33:36.401Z,2.77
2019-03-23T06:36:08.545Z,2.91
2019-03-23T06:38:40.492Z,3.10
2019-03-23T06:41:13.410Z,3.33
2019-03-23T06:43:45.984Z,3.68
2019-03-23T06:46:18.246Z,4.01
2019-03-23T06:48:50.083Z,4.27
2019-03-23T06:51:21.583Z,4.60
2019-03-23T06:53:55.368Z,5.05
2019-03-23T06:56:27.476Z,6.00
2019-03-23T06:58:58.979Z,7.16
2019-03-23T07:01:30.434Z,8.26
2019-03-23T07:04:02.351Z,9.61
2019-03-23T07:06:33.575Z,10.41
2019-03-23T07:09:16.129Z,11.14
2019-03-23T07:11:42.295Z,12.17
2019-03-23T07:14:14.723Z,12.33
2019-03-23T07:16:47.082Z,13.08
2019-03-23T07:19:18.899Z,13.74
2019-03-23T07:21:50.389Z,14.62
2019-03-23T07:24:21.783Z,15.20
2019-03-23T07:26:53.501Z,15.58
2019-03-23T07:29:24.916Z,15.78
2019-03-23T07:32:05.432Z,16.04
2019-03-23T07:34:29.535Z,16.05
2019-03-23T07:37:01.294Z,15.68
2019-03-23T07:39:33.382Z,16.46
2019-03-23T07:42:04.533Z,16.98
2019-03-23T07:44:36.044Z,17.32
2019-03-23T07:47:07.819Z,17.63
2019-03-23T07:49:39.258Z,16.17
2019-03-23T07:52:10.734Z,16.78
2019-03-23T07:54:42.682Z,14.53
2019-03-23T07:57:14.161Z,16.69
2019-03-23T07:59:45.717Z,15.63
2019-03-23T08:02:17.947Z,16.21
2019-03-23T08:04:51.038Z,15.20
2019-03-23T08:07:22.395Z,15.88
2019-03-23T08:09:54.469Z,17.43
2019-03-23T08:12:26.452Z,18.73
2019-03-23T08:14:58.500Z,18.96
2019-03-23T08:17:29.942Z,19.52
2019-03-23T08:20:02.361Z,19.10
2019-03-23T08:22:34.474Z,17.36
2019-03-23T08:25:06.527Z,17.71
2019-03-23T08:27:37.919Z,17.98
2019-03-23T08:30:09.648Z,18.86
2019-03-23T08:32:42.143Z,17.89
2019-03-23T08:35:13.305Z,19.59
2019-03-23T08:37:46.895Z,18.33
2019-03-23T08:40:18.042Z,17.47
2019-03-23T08:42:51.182Z,19.55
2019-03-23T08:45:22.972Z,20.03
2019-03-23T08:47:54.833Z,17.66
2019-03-23T08:50:26.647Z,18.92
2019-03-23T08:52:57.838Z,17.65
2019-03-23T08:55:29.754Z,16.78
2019-03-23T08:58:01.950Z,16.48
2019-03-23T09:00:34.167Z,16.72
2019-03-23T09:03:05.970Z,17.10
2019-03-23T09:05:37.421Z,17.80
2019-03-23T09:08:09.416Z,15.99
2019-03-23T09:10:41.735Z,17.03
2019-03-23T09:13:14.633Z,17.50
2019-03-23T09:15:47.128Z,19.46
2019-03-23T09:18:18.838Z,19.36
2019-03-23T09:20:52.687Z,20.17
2019-03-23T09:23:24.481Z,20.01
2019-03-23T09:25:56.512Z,21.98
2019-03-23T09:28:28.546Z,21.27
2019-03-23T09:31:01.463Z,20.41
2019-03-23T09:33:33.397Z,20.71
2019-03-23T09:36:05.278Z,20.11
2019-03-23T09:38:37.593Z,21.53
2019-03-23T09:41:11.957Z,23.34
2019-03-23T09:43:43.871Z,21.26
2019-03-23T09:46:15.374Z,20.28
2019-03-23T09:48:46.860Z,19.63
2019-03-23T09:51:18.677Z,21.59
2019-03-23T09:53:51.678Z,18.89
2019-03-23T09:56:23.971Z,19.37
2019-03-23T09:58:56.428Z,20.65
2019-03-23T10:01:28.587Z,22.94
2019-03-23T10:04:00.451Z,24.43
2019-03-23T10:06:34.765Z,24.78
2019-03-23T10:09:07.903Z,21.76
2019-03-23T10:11:39.077Z,21.56
2019-03-23T10:14:10.871Z,22.78
2019-03-23T10:16:42.713Z,24.84
2019-03-23T10:19:31.368Z,24.84
2019-03-23T10:22:03.156Z,25.56
2019-03-23T10:24:35.287Z,22.23
2019-03-23T10:27:07.213Z,22.07
2019-03-23T10:29:38.637Z,24.21
2019-03-23T10:32:10.050Z,22.12
2019-03-23T10:34:42.189Z,19.72
2019-03-23T10:37:13.907Z,21.92
2019-03-23T10:39:46.424Z,22.42
2019-03-23T10:42:18.728Z,23.19
2019-03-23T10:44:52.097Z,21.80
2019-03-23T10:47:23.912Z,22.52
2019-03-23T10:49:55.852Z,22.30
2019-03-23T10:52:28.376Z,21.93
2019-03-23T10:55:00.119Z,24.86
2019-03-23T10:57:31.947Z,22.75
2019-03-23T11:00:04.501Z,23.32
2019-03-23T11:02:37.149Z,22.52
2019-03-23T11:05:09.661Z,20.68
2019-03-23T11:07:42.230Z,21.34
2019-03-23T11:10:14.433Z,21.97
2019-03-23T11:12:46.673Z,22.01
2019-03-23T11:15:18.129Z,23.50
2019-03-23T11:17:50.153Z,24.54
2019-03-23T11:20:21.961Z,24.29
2019-03-23T11:22:53.556Z,22.70
